createdAt,value
2019-02-28T00:00:53.603Z,37.03
2019-02-28T00:03:22.336Z,29.97
2019-02-28T00:05:50.978Z,30.17
2019-02-28T00:08:19.597Z,26.53
2019-02-28T00:10:48.172Z,29.57
2019-02-28T00:13:21.478Z,32.17
2019-02-28T00:15:47.107Z,31.27
2019-02-28T00:18:16.703Z,31.47
2019-02-28T00:20:45.415Z,30.00
2019-02-28T00:23:13.981Z,30.90
2019-02-28T00:25:42.716Z,37.50
2019-02-28T00:28:11.328Z,25.33
2019-02-28T00:30:40.729Z,31.20
2019-02-28T00:33:10.113Z,27.97
2019-02-28T00:35:38.808Z,29.07
2019-02-28T00:38:07.539Z,30.03
2019-02-28T00:40:38.490Z,32.53
2019-02-28T00:43:06.559Z,29.53
2019-02-28T00:45:37.181Z,31.13
2019-02-28T00:48:05.624Z,30.77
2019-02-28T00:50:34.312Z,25.90
2019-02-28T00:53:02.901Z,28.60
2019-02-28T00:55:31.452Z,26.40
2019-02-28T00:58:00.076Z,33.73
2019-02-28T01:00:28.800Z,27.77
2019-02-28T01:02:58.086Z,28.20
2019-02-28T01:05:27.114Z,28.63
2019-02-28T01:07:55.808Z,28.03
2019-02-28T01:10:24.740Z,29.80
2019-02-28T01:12:54.556Z,28.73
2019-02-28T01:15:23.268Z,25.93
2019-02-28T01:17:51.825Z,24.77
2019-02-28T01:20:20.409Z,28.37
2019-02-28T01:22:49.032Z,27.97
2019-02-28T01:25:18.525Z,25.57
2019-02-28T01:27:47.166Z,28.17
2019-02-28T01:30:18.516Z,24.87
2019-02-28T01:32:49.915Z,28.53
2019-02-28T01:35:17.375Z,28.43
2019-02-28T01:37:45.956Z,25.47
2019-02-28T01:40:17.836Z,31.83
2019-02-28T01:42:46.421Z,26.90
2019-02-28T01:45:15.117Z,26.60
2019-02-28T01:47:43.771Z,26.47
2019-02-28T01:50:13.764Z,28.67
2019-02-28T01:52:45.919Z,25.33
2019-02-28T01:55:12.768Z,29.27
2019-02-28T01:57:43.872Z,31.07
2019-02-28T02:00:25.854Z,28.40
2019-02-28T02:02:52.686Z,28.93
2019-02-28T02:05:21.407Z,29.90
2019-02-28T02:07:50.027Z,26.33
2019-02-28T02:10:21.793Z,25.60
2019-02-28T02:12:51.931Z,30.33
2019-02-28T02:15:21.027Z,30.27
2019-02-28T02:17:49.610Z,28.57
2019-02-28T02:20:18.407Z,30.53
2019-02-28T02:22:47.325Z,28.33
2019-02-28T02:25:15.948Z,31.70
2019-02-28T02:27:44.533Z,31.10
2019-02-28T02:30:16.308Z,32.77
2019-02-28T02:32:45.161Z,35.13
2019-02-28T02:35:15.206Z,29.87
2019-02-28T02:37:43.805Z,35.97
2019-02-28T02:40:16.486Z,27.83
2019-02-28T02:42:48.394Z,31.60
2019-02-28T02:45:15.749Z,27.63
2019-02-28T02:47:44.497Z,37.60
2019-02-28T02:50:16.434Z,31.43
2019-02-28T02:52:45.061Z,31.60
2019-02-28T02:55:20.122Z,35.03
2019-02-28T02:57:51.886Z,29.43
2019-02-28T03:00:20.966Z,31.37
2019-02-28T03:02:49.610Z,28.47
2019-02-28T03:05:18.167Z,33.33
2019-02-28T03:07:46.751Z,32.43
2019-02-28T03:10:18.268Z,29.77
2019-02-28T03:12:47.282Z,28.87
2019-02-28T03:15:25.448Z,29.60
2019-02-28T03:17:49.780Z,33.67
2019-02-28T03:20:18.504Z,31.33
2019-02-28T03:22:47.126Z,28.60
2019-02-28T03:25:16.754Z,27.20
2019-02-28T03:27:45.392Z,29.40
2019-02-28T03:30:29.014Z,30.73
2019-02-28T03:32:49.155Z,29.00
2019-02-28T03:35:17.877Z,32.13
2019-02-28T03:37:46.497Z,31.63
2019-02-28T03:40:15.628Z,28.43
2019-02-28T03:42:44.322Z,30.60
2019-02-28T03:45:17.490Z,35.63
2019-02-28T03:47:46.184Z,32.27
2019-02-28T03:50:15.098Z,33.40
2019-02-28T03:52:44.716Z,28.37
2019-02-28T03:55:14.539Z,27.30
2019-02-28T03:57:43.212Z,32.43
2019-02-28T04:00:23.423Z,33.23
2019-02-28T04:02:57.042Z,32.40
2019-02-28T04:05:26.418Z,33.73
2019-02-28T04:07:54.586Z,32.63
2019-02-28T04:10:23.071Z,31.80
2019-02-28T04:12:51.659Z,31.10
2019-02-28T04:15:21.246Z,34.47
2019-02-28T04:17:49.857Z,31.87
2019-02-28T04:20:18.580Z,30.43
2019-02-28T04:22:47.215Z,26.83
2019-02-28T04:25:22.951Z,28.27
2019-02-28T04:27:46.077Z,30.27
2019-02-28T04:30:18.304Z,33.67
2019-02-28T04:32:46.883Z,32.27
2019-02-28T04:35:15.602Z,30.23
2019-02-28T04:37:46.506Z,33.33
2019-02-28T04:40:14.440Z,25.67
2019-02-28T04:42:43.030Z,27.93
2019-02-28T04:45:14.205Z,29.60
2019-02-28T04:47:42.784Z,26.47
2019-02-28T04:50:12.796Z,27.43
2019-02-28T04:52:46.731Z,29.27
2019-02-28T04:55:11.941Z,34.70
2019-02-28T04:57:40.574Z,29.53
2019-02-28T05:00:14.892Z,33.50
2019-02-28T05:02:43.516Z,33.37
2019-02-28T05:05:13.321Z,34.20
2019-02-28T05:07:42.548Z,28.37
2019-02-28T05:10:12.093Z,30.47
2019-02-28T05:12:41.100Z,30.87
2019-02-28T05:15:14.639Z,27.50
2019-02-28T05:17:43.301Z,26.27
2019-02-28T05:20:12.435Z,27.60
2019-02-28T05:22:41.078Z,28.67
2019-02-28T05:25:17.617Z,29.30
2019-02-28T05:27:42.705Z,34.43
2019-02-28T05:30:19.316Z,28.73
2019-02-28T05:32:45.940Z,29.03
2019-02-28T05:35:14.604Z,29.77
2019-02-28T05:37:47.001Z,27.63
2019-02-28T05:40:15.045Z,30.83
2019-02-28T05:45:25.588Z,32.53
2019-02-28T05:47:54.219Z,32.70
2019-02-28T05:50:23.002Z,31.90
2019-02-28T05:52:51.604Z,29.23
2019-02-28T05:55:24.607Z,29.57
2019-02-28T05:57:50.544Z,30.37
2019-02-28T06:00:20.810Z,28.50
2019-02-28T06:02:49.477Z,30.50
2019-02-28T06:05:18.176Z,32.70
2019-02-28T06:07:46.773Z,26.67
2019-02-28T06:10:16.195Z,33.73
2019-02-28T06:12:45.048Z,30.53
2019-02-28T06:15:17.584Z,34.60
2019-02-28T06:17:48.957Z,36.80
2019-02-28T06:20:18.058Z,36.90
2019-02-28T06:22:46.952Z,35.47
2019-02-28T06:25:23.605Z,28.43
2019-02-28T06:27:50.468Z,33.30
2019-02-28T06:30:17.746Z,33.87
2019-02-28T06:32:46.389Z,29.63
2019-02-28T06:35:17.775Z,39.10
2019-02-28T06:37:45.310Z,37.53
2019-02-28T06:40:15.080Z,35.53
2019-02-28T06:42:46.641Z,43.53
2019-02-28T06:45:16.279Z,35.63
2019-02-28T06:47:49.519Z,29.23
2019-02-28T06:50:16.852Z,36.90
2019-02-28T06:52:45.526Z,40.73
2019-02-28T06:55:21.903Z,45.43
2019-02-28T06:57:50.491Z,50.50
2019-02-28T07:00:19.181Z,54.97
2019-02-28T07:02:49.977Z,69.90
2019-02-28T07:05:18.214Z,34.60
2019-02-28T07:07:54.152Z,31.57
2019-02-28T07:10:22.137Z,30.23
2019-02-28T07:12:50.943Z,35.50
2019-02-28T07:15:23.777Z,31.63
2019-02-28T07:17:50.144Z,38.87
2019-02-28T07:20:19.930Z,36.53
2019-02-28T07:22:54.488Z,37.57
2019-02-28T07:25:18.972Z,36.50
2019-02-28T07:27:48.476Z,38.13
2019-02-28T07:30:21.411Z,29.63
2019-02-28T07:32:50.182Z,32.73
2019-02-28T07:35:18.805Z,25.97
2019-02-28T07:37:47.393Z,28.93
2019-02-28T07:40:17.750Z,28.43
2019-02-28T07:42:46.839Z,36.30
2019-02-28T07:45:16.577Z,30.70
2019-02-28T07:47:45.434Z,28.80
2019-02-28T07:50:15.517Z,27.10
2019-02-28T07:52:44.139Z,27.10
2019-02-28T07:55:17.848Z,28.00
2019-02-28T07:57:50.942Z,26.43
2019-02-28T08:00:21.928Z,23.73
2019-02-28T08:02:50.616Z,33.53
2019-02-28T08:05:19.844Z,23.20
2019-02-28T08:07:51.805Z,27.77
2019-02-28T08:10:29.870Z,30.20
2019-02-28T08:12:58.568Z,27.93
2019-02-28T08:15:29.681Z,28.13
2019-02-28T08:17:58.483Z,31.07
2019-02-28T08:20:27.222Z,27.53
2019-02-28T08:22:57.694Z,30.03
2019-02-28T08:25:26.139Z,29.43
2019-02-28T08:27:59.156Z,27.40
2019-02-28T08:30:30.653Z,28.93
2019-02-28T08:32:58.975Z,28.57
2019-02-28T08:35:34.059Z,30.60
2019-02-28T08:37:57.846Z,27.70
2019-02-28T08:40:27.948Z,29.07
2019-02-28T08:42:56.656Z,29.30
2019-02-28T08:45:25.235Z,38.47
2019-02-28T08:47:56.667Z,35.97
2019-02-28T08:50:25.417Z,35.70
2019-02-28T08:53:04.802Z,38.10
2019-02-28T08:55:33.465Z,41.50
2019-02-28T08:58:06.183Z,37.50
2019-02-28T09:00:33.225Z,37.60
2019-02-28T09:03:01.750Z,37.93
2019-02-28T09:05:30.284Z,39.37
2019-02-28T09:07:58.806Z,40.30
2019-02-28T09:10:27.100Z,35.67
2019-02-28T09:12:55.429Z,40.73
2019-02-28T09:15:23.903Z,42.17
2019-02-28T09:17:52.220Z,42.57
2019-02-28T09:20:20.541Z,41.63
2019-02-28T09:22:48.784Z,38.87
2019-02-28T09:25:22.063Z,43.73
2019-02-28T09:27:51.093Z,40.17
2019-02-28T09:30:26.526Z,41.63
2019-02-28T09:32:53.933Z,41.57
2019-02-28T09:35:22.205Z,40.23
2019-02-28T09:37:50.464Z,45.80
2019-02-28T09:40:18.760Z,39.80
2019-02-28T09:42:47.907Z,41.47
2019-02-28T09:45:20.657Z,44.47
2019-02-28T09:47:48.953Z,41.13
2019-02-28T09:50:22.501Z,42.20
2019-02-28T09:52:50.762Z,44.60
2019-02-28T09:55:19.088Z,43.40
2019-02-28T09:57:53.826Z,51.07
2019-02-28T10:00:21.105Z,44.83
2019-02-28T10:02:49.341Z,44.17
2019-02-28T10:05:17.570Z,46.57
2019-02-28T10:07:45.966Z,44.83
2019-02-28T10:10:17.453Z,50.60
2019-02-28T10:12:45.705Z,48.30
2019-02-28T10:15:15.002Z,46.67
2019-02-28T10:17:43.338Z,43.17
2019-02-28T10:20:13.101Z,43.40
2019-02-28T10:22:44.239Z,41.73
2019-02-28T10:25:11.863Z,49.23
2019-02-28T10:27:40.132Z,45.33
2019-02-28T10:30:09.905Z,42.93
2019-02-28T10:32:40.384Z,40.30
2019-02-28T10:35:08.577Z,41.83
2019-02-28T10:37:36.801Z,45.60
2019-02-28T10:40:06.604Z,40.23
2019-02-28T10:42:36.976Z,43.73
2019-02-28T10:45:07.016Z,44.97
2019-02-28T10:47:35.480Z,41.87
2019-02-28T10:50:05.176Z,39.57
2019-02-28T10:52:33.509Z,41.57
2019-02-28T10:55:01.810Z,44.07
2019-02-28T10:57:30.138Z,45.60
2019-02-28T10:59:59.226Z,42.93
2019-02-28T11:02:27.577Z,40.63
2019-02-28T11:04:55.814Z,40.30
2019-02-28T11:07:24.812Z,41.13
2019-02-28T11:09:55.602Z,39.83
2019-02-28T11:12:23.915Z,40.00
2019-02-28T11:14:52.256Z,38.10
2019-02-28T11:17:20.487Z,42.30
2019-02-28T11:19:51.994Z,41.70
2019-02-28T11:22:18.695Z,37.83
2019-02-28T11:24:47.829Z,40.50
2019-02-28T11:27:19.146Z,39.97
2019-02-28T11:29:46.020Z,35.30
2019-02-28T11:32:14.329Z,39.47
2019-02-28T11:34:42.581Z,32.77
2019-02-28T11:37:12.698Z,33.90
2019-02-28T11:39:40.801Z,33.33
2019-02-28T11:42:09.109Z,29.47
2019-02-28T11:44:37.415Z,30.97
2019-02-28T11:47:08.345Z,36.63
2019-02-28T11:49:35.689Z,33.57
2019-02-28T11:52:04.021Z,34.40
2019-02-28T11:54:32.244Z,33.73
2019-02-28T11:57:03.353Z,32.90
2019-02-28T11:59:30.783Z,35.83
2019-02-28T12:01:59.381Z,33.87
2019-02-28T12:04:27.947Z,36.43
2019-02-28T12:06:57.398Z,40.77
2019-02-28T12:09:26.103Z,35.70
2019-02-28T12:11:54.329Z,33.53
2019-02-28T12:14:22.588Z,33.03
2019-02-28T12:16:53.631Z,38.90
2019-02-28T12:19:20.788Z,32.27
2019-02-28T12:21:49.024Z,37.10
2019-02-28T12:24:17.285Z,36.13
2019-02-28T12:26:45.504Z,36.73
2019-02-28T12:29:13.869Z,34.33
2019-02-28T12:31:42.169Z,36.73
2019-02-28T12:34:10.419Z,37.53
2019-02-28T12:36:38.645Z,34.20
2019-02-28T12:39:08.068Z,37.23
2019-02-28T12:41:36.702Z,40.00
2019-02-28T12:44:05.400Z,37.10
2019-02-28T12:46:34.061Z,37.57
2019-02-28T12:49:02.703Z,42.53
2019-02-28T12:51:40.286Z,39.63
2019-02-28T12:54:08.842Z,41.37
2019-02-28T12:56:37.579Z,40.40
2019-02-28T12:59:10.016Z,40.03
2019-02-28T13:01:36.530Z,40.37
2019-02-28T13:04:05.225Z,44.70
2019-02-28T13:06:33.825Z,47.17
2019-02-28T13:09:02.529Z,46.13
2019-02-28T13:11:31.130Z,43.87
2019-02-28T13:14:02.453Z,40.70
2019-02-28T13:16:30.365Z,42.63
2019-02-28T13:18:58.595Z,45.53
2019-02-28T13:21:26.893Z,40.83
2019-02-28T13:23:55.149Z,44.70
2019-02-28T13:26:23.462Z,38.87
2019-02-28T13:28:54.537Z,41.27
2019-02-28T13:31:25.609Z,36.37
2019-02-28T13:33:52.507Z,53.40
2019-02-28T13:36:22.779Z,37.60
2019-02-28T13:38:54.830Z,41.50
2019-02-28T13:41:22.308Z,41.73
2019-02-28T13:43:51.244Z,38.77
2019-02-28T13:46:19.498Z,38.53
2019-02-28T13:48:47.760Z,41.17
2019-02-28T13:51:16.155Z,39.93
2019-02-28T13:53:44.396Z,37.57
2019-02-28T13:56:12.734Z,37.17
2019-02-28T13:58:40.962Z,37.50
2019-02-28T14:01:09.388Z,39.40
2019-02-28T14:03:37.630Z,34.97
2019-02-28T14:06:05.956Z,38.20
2019-02-28T14:08:37.273Z,39.03
2019-02-28T14:11:10.169Z,38.77
2019-02-28T14:13:36.200Z,36.80
2019-02-28T14:16:05.149Z,34.83
2019-02-28T14:18:33.785Z,37.53
2019-02-28T14:21:02.941Z,34.80
2019-02-28T14:23:32.714Z,31.10
2019-02-28T14:26:01.399Z,31.33
2019-02-28T14:28:32.418Z,32.60
2019-02-28T14:31:00.276Z,40.07
2019-02-28T14:33:28.865Z,37.43
2019-02-28T14:35:57.766Z,31.53
2019-02-28T14:38:29.477Z,37.57
2019-02-28T14:40:56.568Z,35.73
2019-02-28T14:43:25.229Z,28.70
2019-02-28T14:45:53.929Z,30.53
2019-02-28T14:48:22.513Z,32.90
2019-02-28T14:50:54.169Z,32.50
2019-02-28T14:53:21.385Z,33.03
2019-02-28T14:55:50.173Z,33.80
2019-02-28T14:58:21.275Z,32.87
2019-02-28T15:00:49.121Z,31.90
2019-02-28T15:03:17.867Z,35.00
2019-02-28T15:05:47.739Z,37.03
2019-02-28T15:08:16.709Z,35.70
2019-02-28T15:10:45.911Z,33.93
2019-02-28T15:13:14.980Z,33.80
2019-02-28T15:15:43.805Z,31.07
2019-02-28T15:18:14.654Z,34.57
2019-02-28T15:20:42.809Z,27.77
2019-02-28T15:23:11.640Z,30.60
2019-02-28T15:25:40.400Z,30.63
2019-02-28T15:28:10.705Z,29.67
2019-02-28T15:30:42.879Z,30.27
2019-02-28T15:33:11.642Z,34.77
2019-02-28T15:35:40.351Z,33.70
2019-02-28T15:38:10.396Z,36.77
2019-02-28T15:40:46.777Z,36.27
2019-02-28T15:43:18.275Z,32.40
2019-02-28T15:45:46.003Z,38.90
2019-02-28T15:48:14.773Z,36.97
2019-02-28T15:50:44.127Z,38.23
2019-02-28T15:53:15.195Z,34.60
2019-02-28T15:55:43.536Z,30.83
2019-02-28T15:58:13.046Z,38.90
2019-02-28T16:00:41.736Z,36.80
2019-02-28T16:03:10.328Z,35.53
2019-02-28T16:05:44.050Z,35.60
2019-02-28T16:08:10.804Z,36.30
2019-02-28T16:10:39.647Z,33.63
2019-02-28T16:13:08.361Z,32.93
2019-02-28T16:15:37.098Z,39.00
2019-02-28T16:18:11.935Z,37.73
2019-02-28T16:20:41.422Z,42.43
2019-02-28T16:23:10.182Z,44.93
2019-02-28T16:25:39.710Z,37.60
2019-02-28T16:28:09.165Z,47.53
2019-02-28T16:30:39.585Z,42.27
2019-02-28T16:33:08.295Z,38.03
2019-02-28T16:35:36.870Z,44.57
2019-02-28T16:38:06.443Z,47.43
2019-02-28T16:40:35.997Z,41.90
2019-02-28T16:43:04.737Z,45.27
2019-02-28T16:45:37.481Z,42.73
2019-02-28T16:48:07.584Z,45.50
2019-02-28T16:50:37.230Z,43.17
2019-02-28T16:53:06.517Z,45.47
2019-02-28T16:55:35.746Z,43.30
2019-02-28T16:58:04.988Z,44.50
2019-02-28T17:00:34.140Z,45.87
2019-02-28T17:03:04.092Z,41.73
2019-02-28T17:05:33.761Z,43.33
2019-02-28T17:08:03.161Z,49.63
2019-02-28T17:10:35.074Z,42.70
2019-02-28T17:13:20.434Z,44.90
2019-02-28T17:16:02.928Z,42.47
2019-02-28T17:18:37.048Z,39.43
2019-02-28T17:21:06.692Z,42.17
2019-02-28T17:23:37.001Z,45.50
2019-02-28T17:26:06.283Z,45.87
2019-02-28T17:28:36.672Z,39.00
2019-02-28T17:31:18.927Z,42.20
2019-02-28T17:33:47.968Z,39.00
2019-02-28T17:36:16.794Z,40.87
2019-02-28T17:38:45.457Z,43.43
2019-02-28T17:41:14.119Z,40.57
2019-02-28T17:43:46.168Z,45.07
2019-02-28T17:46:16.918Z,38.37
2019-02-28T17:48:52.390Z,43.10
2019-02-28T17:51:25.166Z,39.00
2019-02-28T17:54:02.041Z,45.30
2019-02-28T17:56:44.582Z,40.47
2019-02-28T17:59:21.956Z,35.57
2019-02-28T18:02:26.959Z,41.00
2019-02-28T18:05:29.854Z,35.17
2019-02-28T18:08:13.937Z,46.00
2019-02-28T18:11:08.156Z,46.37
2019-02-28T18:14:00.109Z,46.47
2019-02-28T18:16:40.574Z,44.93
2019-02-28T18:19:33.228Z,52.67
2019-02-28T18:22:09.288Z,39.97
2019-02-28T18:25:17.326Z,42.23
2019-02-28T18:28:03.186Z,42.17
2019-02-28T18:30:42.718Z,43.93
2019-02-28T18:33:11.455Z,45.37
2019-02-28T18:35:40.221Z,35.00
2019-02-28T18:38:08.784Z,35.93
2019-02-28T18:40:37.165Z,31.10
2019-02-28T18:43:05.824Z,30.70
2019-02-28T18:45:34.562Z,27.87
2019-02-28T18:48:04.662Z,27.27
2019-02-28T18:50:34.135Z,30.97
2019-02-28T18:53:05.380Z,23.27
2019-02-28T18:55:36.994Z,20.37
2019-02-28T19:03:53.041Z,21.93
2019-02-28T19:06:26.529Z,20.97
2019-02-28T19:08:55.250Z,20.40
2019-02-28T19:11:26.336Z,20.27
2019-02-28T19:13:55.132Z,20.57
2019-02-28T19:16:24.073Z,18.83
2019-02-28T19:18:52.707Z,19.30
2019-02-28T19:21:21.318Z,19.70
2019-02-28T19:23:50.616Z,17.93
2019-02-28T19:26:20.194Z,19.83
2019-02-28T19:28:49.082Z,17.20
2019-02-28T19:31:19.796Z,18.80
2019-02-28T19:33:49.246Z,19.30
2019-02-28T19:36:18.933Z,22.83
2019-02-28T19:38:47.698Z,16.50
2019-02-28T19:41:16.329Z,17.90
2019-02-28T19:43:44.930Z,19.73
2019-02-28T19:46:13.489Z,20.37
2019-02-28T19:48:42.277Z,20.83
2019-02-28T19:51:11.029Z,17.37
2019-02-28T19:53:39.615Z,21.97
2019-02-28T19:56:08.177Z,16.93
2019-02-28T19:58:36.803Z,21.30
2019-02-28T20:01:05.542Z,24.13
2019-02-28T20:03:34.195Z,18.70
2019-02-28T20:06:02.861Z,15.90
2019-02-28T20:08:31.672Z,18.77
2019-02-28T20:11:00.530Z,18.97
2019-02-28T20:13:29.210Z,19.37
2019-02-28T20:15:57.965Z,21.07
2019-02-28T20:18:26.670Z,18.03
2019-02-28T20:20:55.391Z,20.70
2019-02-28T20:23:24.981Z,17.43
2019-02-28T20:25:54.005Z,19.17
2019-02-28T20:28:22.631Z,21.37
2019-02-28T20:30:51.419Z,18.60
2019-02-28T20:33:20.125Z,21.97
2019-02-28T20:35:48.765Z,20.73
2019-02-28T20:38:17.566Z,21.33
2019-02-28T20:40:46.185Z,24.37
2019-02-28T20:43:14.970Z,23.20
2019-02-28T20:45:43.996Z,22.73
2019-02-28T20:48:13.079Z,19.67
2019-02-28T20:50:43.829Z,23.53
2019-02-28T20:53:12.537Z,23.27
2019-02-28T20:55:41.136Z,23.57
2019-02-28T20:58:10.247Z,23.33
2019-02-28T21:00:39.056Z,23.83
2019-02-28T21:03:07.753Z,24.90
2019-02-28T21:05:36.605Z,24.80
2019-02-28T21:08:05.334Z,23.37
2019-02-28T21:10:34.334Z,24.17
2019-02-28T21:13:03.114Z,23.73
2019-02-28T21:15:32.316Z,21.53
2019-02-28T21:18:01.082Z,24.77
2019-02-28T21:20:29.831Z,21.83
2019-02-28T21:22:58.736Z,24.50
2019-02-28T21:25:27.776Z,22.13
2019-02-28T21:27:57.338Z,26.50
2019-02-28T21:30:27.668Z,31.33
2019-02-28T21:32:56.728Z,20.17
2019-02-28T21:35:26.149Z,26.67
2019-02-28T21:37:54.974Z,23.10
2019-02-28T21:40:24.101Z,23.60
2019-02-28T21:42:53.739Z,23.70
2019-02-28T21:45:25.390Z,25.93
2019-02-28T21:47:54.513Z,26.83
2019-02-28T21:50:25.217Z,28.33
2019-02-28T21:52:54.622Z,25.63
2019-02-28T21:55:23.688Z,25.70
2019-02-28T21:57:52.544Z,28.10
2019-02-28T22:00:34.860Z,29.30
2019-02-28T22:03:03.639Z,25.93
2019-02-28T22:05:32.412Z,28.50
2019-02-28T22:08:01.097Z,28.37
2019-02-28T22:10:29.740Z,27.93
2019-02-28T22:12:59.814Z,28.00
2019-02-28T22:15:28.858Z,29.17
2019-02-28T22:17:57.614Z,27.00
2019-02-28T22:20:26.467Z,32.07
2019-02-28T22:22:55.281Z,30.43
2019-02-28T22:25:24.055Z,29.83
2019-02-28T22:27:52.905Z,33.70
2019-02-28T22:30:41.877Z,32.77
2019-02-28T22:33:28.319Z,35.33
2019-02-28T22:36:10.662Z,26.87
2019-02-28T22:38:39.323Z,28.87
2019-02-28T22:41:08.002Z,26.50
2019-02-28T22:43:36.731Z,25.33
2019-02-28T22:46:05.580Z,24.93
2019-02-28T22:48:35.188Z,29.20
2019-02-28T22:51:03.973Z,25.50
2019-02-28T22:53:32.814Z,29.43
2019-02-28T22:56:01.704Z,29.40
2019-02-28T22:58:30.500Z,27.03
2019-02-28T23:01:03.824Z,30.73
2019-02-28T23:03:34.324Z,28.87
2019-02-28T23:06:03.120Z,26.87
2019-02-28T23:08:31.905Z,28.20
2019-02-28T23:11:00.802Z,28.73
2019-02-28T23:13:29.556Z,25.67
2019-02-28T23:15:58.385Z,27.17
2019-02-28T23:18:27.239Z,26.07
2019-02-28T23:20:56.102Z,24.83
2019-02-28T23:23:24.872Z,31.63
2019-02-28T23:25:53.759Z,28.80
2019-02-28T23:28:27.894Z,26.60
2019-02-28T23:31:14.454Z,25.20
2019-02-28T23:33:43.214Z,24.20
2019-02-28T23:36:12.014Z,25.77
2019-02-28T23:38:40.789Z,27.43
2019-02-28T23:41:09.545Z,24.77
2019-02-28T23:43:38.306Z,29.23
2019-02-28T23:46:07.068Z,32.47
2019-02-28T23:48:35.671Z,25.50
2019-02-28T23:51:04.405Z,32.20
2019-02-28T23:53:33.201Z,23.27
2019-02-28T23:56:02.017Z,24.93
2019-02-28T23:58:30.769Z,25.37
